createdAt,value
2018-09-14T00:00:04.348Z,98461.58
2018-09-14T00:02:33.910Z,98457.97
2018-09-14T00:05:03.457Z,98459.61
2018-09-14T00:07:33.031Z,98459.80
2018-09-14T00:10:02.860Z,98462.91
2018-09-14T00:12:32.395Z,98467.23
2018-09-14T00:15:02.543Z,98464.58
2018-09-14T00:17:32.691Z,98468.55
2018-09-14T00:20:02.766Z,98463.41
2018-09-14T00:22:32.318Z,98462.44
2018-09-14T00:25:01.831Z,98460.77
2018-09-14T00:27:31.819Z,98466.20
2018-09-14T00:30:01.350Z,98463.56
2018-09-14T00:32:30.935Z,98461.27
2018-09-14T00:35:00.479Z,98458.06
2018-09-14T00:37:30.074Z,98456.44
2018-09-14T00:39:59.623Z,98449.95
2018-09-14T00:42:29.599Z,98454.75
2018-09-14T00:44:59.145Z,98464.01
2018-09-14T00:47:28.710Z,98459.31
2018-09-14T00:49:58.255Z,98457.56
2018-09-14T00:52:27.842Z,98450.57
2018-09-14T00:54:57.546Z,98455.56
2018-09-14T00:57:27.088Z,98451.45
2018-09-14T00:59:56.710Z,98451.92
2018-09-14T01:02:26.566Z,98447.78
2018-09-14T01:04:56.147Z,98450.38
2018-09-14T01:07:25.806Z,98450.23
2018-09-14T01:09:55.323Z,98445.39
2018-09-14T01:12:24.912Z,98446.65
2018-09-14T01:14:54.451Z,98452.08
2018-09-14T01:17:24.108Z,98450.64
2018-09-14T01:19:53.760Z,98452.17
2018-09-14T01:22:23.335Z,98453.70
2018-09-14T01:24:52.888Z,98448.59
2018-09-14T01:27:22.416Z,98451.23
2018-09-14T01:29:51.975Z,98451.20
2018-09-14T01:32:21.558Z,98455.84
2018-09-14T01:34:51.101Z,98446.94
2018-09-14T01:37:20.601Z,98449.88
2018-09-14T01:39:50.132Z,98442.09
2018-09-14T01:42:19.657Z,98442.77
2018-09-14T01:44:49.250Z,98441.24
2018-09-14T01:47:18.810Z,98442.77
2018-09-14T01:49:48.355Z,98444.63
2018-09-14T01:52:17.912Z,98441.22
2018-09-14T01:54:47.460Z,98442.53
2018-09-14T01:57:17.200Z,98442.68
2018-09-14T01:59:46.771Z,98446.30
2018-09-14T02:02:16.486Z,98438.45
2018-09-14T02:04:46.051Z,98437.54
2018-09-14T02:07:15.618Z,98431.23
2018-09-14T02:09:45.188Z,98439.02
2018-09-14T02:12:14.703Z,98441.66
2018-09-14T02:14:44.296Z,98438.27
2018-09-14T02:17:13.856Z,98433.42
2018-09-14T02:19:43.426Z,98429.75
2018-09-14T02:22:12.962Z,98422.55
2018-09-14T02:24:42.534Z,98424.02
2018-09-14T02:27:12.056Z,98422.31
2018-09-14T02:29:41.637Z,98422.49
2018-09-14T02:32:11.472Z,98419.41
2018-09-14T02:34:41.017Z,98420.73
2018-09-14T02:37:10.578Z,98423.05
2018-09-14T02:39:40.120Z,98419.97
2018-09-14T02:42:09.705Z,98420.73
2018-09-14T02:44:39.251Z,98417.91
2018-09-14T02:47:08.819Z,98424.91
2018-09-14T02:49:38.385Z,98427.05
2018-09-14T02:52:08.132Z,98428.72
2018-09-14T02:54:37.699Z,98429.84
2018-09-14T02:57:07.267Z,98432.19
2018-09-14T02:59:36.870Z,98432.90
2018-09-14T03:02:07.224Z,98429.61
2018-09-14T03:04:36.921Z,98425.81
2018-09-14T03:07:07.164Z,98423.53
2018-09-14T03:09:36.727Z,98418.59
2018-09-14T03:12:06.634Z,98426.14
2018-09-14T03:14:36.148Z,98434.89
2018-09-14T03:17:06.192Z,98419.03
2018-09-14T03:19:35.928Z,98421.23
2018-09-14T03:22:05.673Z,98423.59
2018-09-14T03:24:35.204Z,98420.30
2018-09-14T03:27:04.747Z,98421.98
2018-09-14T03:29:34.278Z,98420.16
2018-09-14T03:32:03.829Z,98428.76
2018-09-14T03:34:33.763Z,98424.77
2018-09-14T03:37:03.351Z,98418.92
2018-09-14T03:39:32.876Z,98419.62
2018-09-14T03:42:02.430Z,98421.98
2018-09-14T03:44:31.963Z,98426.47
2018-09-14T03:47:01.480Z,98421.39
2018-09-14T03:49:31.665Z,98421.39
2018-09-14T03:52:01.206Z,98418.74
2018-09-14T03:54:31.234Z,98418.09
2018-09-14T03:57:03.999Z,98422.73
2018-09-14T03:59:36.278Z,98419.27
2018-09-14T04:02:06.837Z,98419.27
2018-09-14T04:04:36.930Z,98422.59
2018-09-14T04:07:06.679Z,98417.45
2018-09-14T04:09:36.254Z,98422.94
2018-09-14T04:12:05.831Z,98418.16
2018-09-14T04:14:35.378Z,98415.98
2018-09-14T04:17:04.940Z,98413.69
2018-09-14T04:19:34.488Z,98418.33
2018-09-14T04:22:04.027Z,98411.86
2018-09-14T04:24:33.579Z,98421.77
2018-09-14T04:27:03.111Z,98423.38
2018-09-14T04:29:32.902Z,98418.74
2018-09-14T04:32:02.448Z,98423.32
2018-09-14T04:34:32.007Z,98420.66
2018-09-14T04:37:01.586Z,98420.09
2018-09-14T04:39:31.144Z,98421.03
2018-09-14T04:42:00.672Z,98421.17
2018-09-14T04:44:30.223Z,98424.64
2018-09-14T04:46:59.750Z,98420.53
2018-09-14T04:49:29.331Z,98428.46
2018-09-14T04:51:58.873Z,98435.77
2018-09-14T04:54:28.467Z,98436.07
2018-09-14T04:56:58.026Z,98439.67
2018-09-14T04:59:27.896Z,98440.03
2018-09-14T05:01:57.455Z,98441.36
2018-09-14T05:04:27.040Z,98449.93
2018-09-14T05:06:56.619Z,98444.97
2018-09-14T05:09:26.226Z,98451.07
2018-09-14T05:11:55.876Z,98453.72
2018-09-14T05:14:25.555Z,98456.72
2018-09-14T05:16:55.394Z,98456.56
2018-09-14T05:19:25.067Z,98461.92
2018-09-14T05:21:54.805Z,98466.20
2018-09-14T05:24:24.608Z,98466.20
2018-09-14T05:26:54.366Z,98468.23
2018-09-14T05:29:23.929Z,98471.84
2018-09-14T05:31:53.588Z,98464.88
2018-09-14T05:34:23.442Z,98480.06
2018-09-14T05:36:53.171Z,98473.45
2018-09-14T05:39:22.876Z,98474.99
2018-09-14T05:41:52.604Z,98470.52
2018-09-14T05:44:22.809Z,98473.17
2018-09-14T05:46:52.747Z,98478.81
2018-09-14T05:49:22.419Z,98483.30
2018-09-14T05:51:52.375Z,98483.16
2018-09-14T05:54:22.398Z,98483.52
2018-09-14T05:56:52.380Z,98479.41
2018-09-14T05:59:22.235Z,98483.69
2018-09-14T06:01:51.999Z,98490.51
2018-09-14T06:04:21.710Z,98491.63
2018-09-14T06:06:51.802Z,98490.66
2018-09-14T06:09:21.644Z,98494.98
2018-09-14T06:11:51.352Z,98500.65
2018-09-14T06:14:20.900Z,98499.03
2018-09-14T06:16:50.658Z,98498.27
2018-09-14T06:19:20.690Z,98502.45
2018-09-14T06:21:50.486Z,98505.63
2018-09-14T06:24:20.201Z,98501.66
2018-09-14T06:26:50.000Z,98505.33
2018-09-14T06:29:19.732Z,98511.44
2018-09-14T06:31:49.308Z,98516.59
2018-09-14T06:34:19.134Z,98514.09
2018-09-14T06:36:49.188Z,98514.29
2018-09-14T06:39:18.771Z,98511.35
2018-09-14T06:41:48.433Z,98509.23
2018-09-14T06:44:18.185Z,98509.09
2018-09-14T06:46:47.992Z,98512.23
2018-09-14T06:49:17.748Z,98513.91
2018-09-14T06:51:47.516Z,98506.15
2018-09-14T06:54:17.162Z,98499.59
2018-09-14T06:56:47.040Z,98496.15
2018-09-14T06:59:16.722Z,98490.62
2018-09-14T07:01:46.395Z,98494.34
2018-09-14T07:04:16.030Z,98491.42
2018-09-14T07:06:45.678Z,98495.52
2018-09-14T07:09:15.386Z,98496.80
2018-09-14T07:11:45.189Z,98496.20
2018-09-14T07:14:14.967Z,98491.15
2018-09-14T07:16:44.619Z,98501.66
2018-09-14T07:19:14.188Z,98499.41
2018-09-14T07:21:43.848Z,98506.54
2018-09-14T07:24:13.603Z,98506.75
2018-09-14T07:26:43.530Z,98512.66
2018-09-14T07:29:13.484Z,98512.34
2018-09-14T07:31:43.311Z,98518.81
2018-09-14T07:34:12.963Z,98521.73
2018-09-14T07:36:42.742Z,98526.61
2018-09-14T07:39:13.074Z,98524.73
2018-09-14T07:41:42.953Z,98524.55
2018-09-14T07:44:12.615Z,98530.32
2018-09-14T07:46:42.399Z,98528.12
2018-09-14T07:49:12.127Z,98532.89
2018-09-14T07:51:41.880Z,98526.72
2018-09-14T07:54:11.584Z,98527.59
2018-09-14T07:56:41.272Z,98527.35
2018-09-14T07:59:11.307Z,98533.38
2018-09-14T08:01:41.496Z,98535.72
2018-09-14T08:04:11.284Z,98535.42
2018-09-14T08:06:40.871Z,98540.73
2018-09-14T08:09:12.654Z,98541.45
2018-09-14T08:11:42.633Z,98539.17
2018-09-14T08:14:12.457Z,98541.00
2018-09-14T08:16:42.274Z,98544.69
2018-09-14T08:19:11.858Z,98542.64
2018-09-14T08:21:41.636Z,98541.22
2018-09-14T08:24:11.586Z,98541.08
2018-09-14T08:26:41.436Z,98547.59
2018-09-14T08:29:11.309Z,98545.81
2018-09-14T08:31:40.888Z,98550.70
2018-09-14T08:34:10.499Z,98546.28
2018-09-14T08:36:40.204Z,98551.78
2018-09-14T08:39:11.727Z,98552.80
2018-09-14T08:41:41.363Z,98550.82
2018-09-14T08:44:11.111Z,98558.31
2018-09-14T08:46:40.695Z,98558.77
2018-09-14T08:49:10.296Z,98566.22
2018-09-14T08:51:39.847Z,98562.44
2018-09-14T08:54:09.431Z,98565.80
2018-09-14T08:56:39.095Z,98571.97
2018-09-14T08:59:08.701Z,98573.03
2018-09-14T09:01:38.445Z,98578.84
2018-09-14T09:04:08.147Z,98567.42
2018-09-14T09:06:37.762Z,98573.12
2018-09-14T09:09:11.819Z,98571.41
2018-09-14T09:11:41.970Z,98573.00
2018-09-14T09:14:11.715Z,98575.50
2018-09-14T09:16:41.280Z,98574.05
2018-09-14T09:19:10.858Z,98576.58
2018-09-14T09:21:40.599Z,98573.42
2018-09-14T09:24:10.178Z,98577.27
2018-09-14T09:26:39.989Z,98573.52
2018-09-14T09:29:09.583Z,98574.52
2018-09-14T09:31:39.129Z,98574.76
2018-09-14T09:34:08.787Z,98575.45
2018-09-14T09:36:38.383Z,98570.95
2018-09-14T09:39:11.913Z,98569.66
2018-09-14T09:41:42.414Z,98575.31
2018-09-14T09:44:12.409Z,98571.66
2018-09-14T09:46:41.988Z,98573.84
2018-09-14T09:49:11.574Z,98575.36
2018-09-14T09:51:41.451Z,98571.89
2018-09-14T09:54:10.997Z,98572.06
2018-09-14T09:56:40.911Z,98572.25
2018-09-14T09:59:10.664Z,98573.38
2018-09-14T10:01:47.075Z,98577.20
2018-09-14T10:05:24.828Z,98574.19
2018-09-14T10:07:54.394Z,98577.00
2018-09-14T10:10:23.979Z,98568.55
2018-09-14T10:12:53.571Z,98572.23
2018-09-14T10:15:23.112Z,98573.25
2018-09-14T10:17:52.703Z,98580.72
2018-09-14T10:20:22.273Z,98575.59
2018-09-14T10:22:52.208Z,98573.14
2018-09-14T10:25:21.780Z,98575.95
2018-09-14T10:27:51.381Z,98580.44
2018-09-14T10:30:20.951Z,98578.13
2018-09-14T10:32:50.828Z,98582.94
2018-09-14T10:37:48.918Z,98584.11
2018-09-14T10:40:18.477Z,98583.09
2018-09-14T10:42:48.315Z,98581.94
2018-09-14T10:45:18.042Z,98580.63
2018-09-14T10:47:47.735Z,98575.64
2018-09-14T10:50:17.334Z,98573.48
2018-09-14T10:52:46.884Z,98574.48
2018-09-14T10:55:16.506Z,98569.64
2018-09-14T10:57:46.194Z,98567.84
2018-09-14T11:00:15.791Z,98568.50
2018-09-14T11:02:45.584Z,98568.34
2018-09-14T11:05:15.412Z,98569.33
2018-09-14T11:07:45.211Z,98564.16
2018-09-14T11:10:14.828Z,98559.98
2018-09-14T11:12:44.716Z,98562.47
2018-09-14T11:15:14.620Z,98563.80
2018-09-14T11:17:44.347Z,98563.47
2018-09-14T11:20:14.063Z,98561.81
2018-09-14T11:22:43.735Z,98559.14
2018-09-14T11:25:13.391Z,98554.67
2018-09-14T11:27:43.278Z,98556.48
2018-09-14T11:30:13.024Z,98545.02
2018-09-14T11:32:42.782Z,98551.98
2018-09-14T11:35:12.603Z,98554.98
2018-09-14T11:37:42.412Z,98552.47
2018-09-14T11:40:12.357Z,98555.13
2018-09-14T11:42:42.020Z,98548.83
2018-09-14T11:45:11.814Z,98545.79
2018-09-14T11:47:41.671Z,98544.93
2018-09-14T11:50:11.292Z,98544.12
2018-09-14T11:52:41.063Z,98542.14
2018-09-14T11:55:10.836Z,98539.13
2018-09-14T11:57:40.411Z,98533.12
2018-09-14T12:00:10.839Z,98533.77
2018-09-14T12:02:40.404Z,98528.75
2018-09-14T12:05:10.027Z,98524.11
2018-09-14T12:07:40.012Z,98522.48
2018-09-14T12:10:10.042Z,98515.21
2018-09-14T12:12:39.739Z,98512.89
2018-09-14T12:15:09.818Z,98515.21
2018-09-14T12:17:39.575Z,98516.51
2018-09-14T12:20:09.228Z,98514.48
2018-09-14T12:22:38.939Z,98507.96
2018-09-14T12:25:08.615Z,98504.78
2018-09-14T12:27:38.388Z,98504.26
2018-09-14T12:30:08.495Z,98502.88
2018-09-14T12:32:38.045Z,98504.55
2018-09-14T12:35:07.655Z,98502.28
2018-09-14T12:37:37.931Z,98497.83
2018-09-14T12:40:08.185Z,98492.72
2018-09-14T12:42:37.846Z,98495.67
2018-09-14T12:45:08.597Z,98497.64
2018-09-14T12:47:38.125Z,98493.13
2018-09-14T12:50:09.857Z,98497.26
2018-09-14T12:52:39.633Z,98495.53
2018-09-14T12:55:09.590Z,98492.17
2018-09-14T12:57:39.230Z,98488.84
2018-09-14T13:00:09.038Z,98490.84
2018-09-14T13:02:38.622Z,98487.81
2018-09-14T13:07:48.983Z,98484.11
2018-09-14T13:10:18.537Z,98474.90
2018-09-14T13:12:48.297Z,98483.00
2018-09-14T13:15:18.116Z,98486.09
2018-09-14T13:17:47.692Z,98483.72
2018-09-14T13:20:17.491Z,98481.83
2018-09-14T13:22:47.072Z,98476.72
2018-09-14T13:25:16.633Z,98480.19
2018-09-14T13:27:46.239Z,98479.19
2018-09-14T13:30:15.939Z,98478.31
2018-09-14T13:32:51.087Z,98470.48
2018-09-14T13:35:22.472Z,98470.12
2018-09-14T13:37:52.544Z,98472.86
2018-09-14T13:40:22.502Z,98463.70
2018-09-14T13:42:52.259Z,98461.80
2018-09-14T13:45:22.260Z,98460.45
2018-09-14T13:47:51.835Z,98458.54
2018-09-14T13:50:21.474Z,98459.36
2018-09-14T13:52:51.389Z,98453.87
2018-09-14T13:55:21.309Z,98456.33
2018-09-14T13:57:51.257Z,98453.84
2018-09-14T14:00:21.222Z,98451.33
2018-09-14T14:02:51.149Z,98450.38
2018-09-14T14:05:20.727Z,98449.72
2018-09-14T14:07:50.276Z,98447.53
2018-09-14T14:10:19.811Z,98445.29
2018-09-14T14:12:49.829Z,98450.72
2018-09-14T14:15:19.354Z,98447.44
2018-09-14T14:17:48.984Z,98454.66
2018-09-14T14:20:18.695Z,98446.38
2018-09-14T14:22:48.557Z,98439.32
2018-09-14T14:25:18.156Z,98440.77
2018-09-14T14:27:47.767Z,98432.95
2018-09-14T14:30:17.301Z,98438.44
2018-09-14T14:32:46.890Z,98431.53
2018-09-14T14:35:16.656Z,98432.80
2018-09-14T14:37:46.223Z,98432.85
2018-09-14T14:40:15.803Z,98430.36
2018-09-14T14:42:45.338Z,98425.12
2018-09-14T14:45:14.924Z,98433.34
2018-09-14T14:47:44.499Z,98426.59
2018-09-14T14:50:14.094Z,98431.09
2018-09-14T14:52:44.212Z,98419.55
2018-09-14T14:55:13.857Z,98422.73
2018-09-14T14:57:43.411Z,98422.24
2018-09-14T15:00:12.977Z,98418.76
2018-09-14T15:02:42.527Z,98413.81
2018-09-14T15:05:12.210Z,98419.39
2018-09-14T15:07:41.970Z,98410.30
2018-09-14T15:10:11.560Z,98414.22
2018-09-14T15:12:41.148Z,98420.53
2018-09-14T15:15:10.878Z,98415.55
2018-09-14T15:17:40.504Z,98413.34
2018-09-14T15:20:10.273Z,98412.73
2018-09-14T15:22:39.841Z,98413.70
2018-09-14T15:25:09.621Z,98412.91
2018-09-14T15:27:39.200Z,98413.67
2018-09-14T15:30:09.061Z,98412.34
2018-09-14T15:32:38.961Z,98415.08
2018-09-14T15:35:08.678Z,98421.45
2018-09-14T15:37:38.313Z,98413.81
2018-09-14T15:40:08.225Z,98412.83
2018-09-14T15:42:37.907Z,98411.17
2018-09-14T15:45:07.555Z,98409.71
2018-09-14T15:47:37.471Z,98412.22
2018-09-14T15:50:07.827Z,98406.58
2018-09-14T15:52:37.652Z,98417.95
2018-09-14T15:55:07.248Z,98413.33
2018-09-14T15:57:36.869Z,98421.48
2018-09-14T16:00:07.293Z,98417.02
2018-09-14T16:02:36.892Z,98415.05
2018-09-14T16:05:06.451Z,98414.06
2018-09-14T16:07:36.040Z,98410.42
2018-09-14T16:10:05.987Z,98415.09
2018-09-14T16:12:35.536Z,98414.42
2018-09-14T16:15:05.507Z,98416.95
2018-09-14T16:17:35.081Z,98415.11
2018-09-14T16:20:04.978Z,98415.81
2018-09-14T16:22:35.028Z,98413.02
2018-09-14T16:25:04.663Z,98413.56
2018-09-14T16:27:34.242Z,98422.70
2018-09-14T16:30:04.299Z,98421.00
2018-09-14T16:32:33.882Z,98423.96
2018-09-14T16:35:03.464Z,98427.47
2018-09-14T16:37:32.978Z,98417.83
2018-09-14T16:40:02.555Z,98416.15
2018-09-14T16:42:32.103Z,98429.80
2018-09-14T16:45:01.666Z,98427.78
2018-09-14T16:47:31.427Z,98429.63
2018-09-14T16:50:00.957Z,98433.14
2018-09-14T16:52:30.534Z,98432.66
2018-09-14T16:55:00.204Z,98431.84
2018-09-14T16:57:29.952Z,98442.51
2018-09-14T16:59:59.504Z,98439.03
2018-09-14T17:02:29.118Z,98443.83
2018-09-14T17:04:58.735Z,98437.89
2018-09-14T17:07:28.296Z,98441.86
2018-09-14T17:09:57.878Z,98434.87
2018-09-14T17:12:27.439Z,98436.88
2018-09-14T17:14:56.987Z,98444.20
2018-09-14T17:17:26.526Z,98442.18
2018-09-14T17:19:56.067Z,98442.35
2018-09-14T17:22:25.603Z,98436.72
2018-09-14T17:24:55.187Z,98441.52
2018-09-14T17:27:24.744Z,98439.53
2018-09-14T17:29:54.515Z,98437.72
2018-09-14T17:32:24.388Z,98443.19
2018-09-14T17:34:53.970Z,98445.85
2018-09-14T17:37:23.498Z,98445.51
2018-09-14T17:39:53.101Z,98448.84
2018-09-14T17:42:22.807Z,98453.16
2018-09-14T17:44:52.400Z,98454.14
2018-09-14T17:47:21.933Z,98455.33
2018-09-14T17:49:51.690Z,98453.47
2018-09-14T17:52:21.369Z,98459.46
2018-09-14T17:54:50.955Z,98456.66
2018-09-14T17:57:20.612Z,98461.28
2018-09-14T17:59:50.320Z,98455.82
2018-09-14T18:02:19.918Z,98450.66
2018-09-14T18:04:49.497Z,98443.34
2018-09-14T18:07:19.059Z,98444.34
2018-09-14T18:09:48.648Z,98448.47
2018-09-14T18:12:18.410Z,98454.78
2018-09-14T18:14:47.942Z,98477.30
2018-09-14T18:17:17.588Z,98478.63
2018-09-14T18:19:47.285Z,98482.09
2018-09-14T18:22:16.983Z,98488.03
2018-09-14T18:24:46.742Z,98490.53
2018-09-14T18:27:16.803Z,98495.50
2018-09-14T18:29:46.438Z,98498.82
2018-09-14T18:32:16.182Z,98509.59
2018-09-14T18:34:45.854Z,98504.45
2018-09-14T18:37:15.811Z,98503.76
2018-09-14T18:39:45.570Z,98498.45
2018-09-14T18:42:15.223Z,98502.77
2018-09-14T18:44:44.935Z,98505.59
2018-09-14T18:47:14.737Z,98503.25
2018-09-14T18:49:44.750Z,98500.42
2018-09-14T18:52:14.371Z,98505.34
2018-09-14T18:54:44.174Z,98503.67
2018-09-14T18:57:13.966Z,98504.81
2018-09-14T18:59:43.870Z,98508.29
2018-09-14T19:02:13.604Z,98513.56
2018-09-14T19:04:43.304Z,98509.89
2018-09-14T19:07:13.034Z,98511.03
2018-09-14T19:09:42.760Z,98507.37
2018-09-14T19:12:12.463Z,98514.00
2018-09-14T19:14:42.168Z,98512.48
2018-09-14T19:17:11.731Z,98516.96
2018-09-14T19:19:41.623Z,98517.94
2018-09-14T19:22:11.322Z,98522.42
2018-09-14T19:24:41.003Z,98528.34
2018-09-14T19:27:10.938Z,98531.31
2018-09-14T19:29:40.764Z,98528.81
2018-09-14T19:32:10.410Z,98530.45
2018-09-14T19:34:40.144Z,98526.25
2018-09-14T19:37:10.744Z,98536.84
2018-09-14T19:39:40.363Z,98529.67
2018-09-14T19:42:10.230Z,98533.48
2018-09-14T19:44:39.953Z,98525.30
2018-09-14T19:47:10.250Z,98526.62
2018-09-14T19:49:39.828Z,98530.75
2018-09-14T19:52:09.626Z,98530.08
2018-09-14T19:54:39.242Z,98529.41
2018-09-14T19:57:09.103Z,98535.84
2018-09-14T19:59:38.680Z,98533.33
2018-09-14T20:02:08.414Z,98526.62
2018-09-14T20:04:38.046Z,98530.90
2018-09-14T20:07:08.407Z,98528.08
2018-09-14T20:09:37.975Z,98528.39
2018-09-14T20:12:07.619Z,98530.69
2018-09-14T20:14:37.223Z,98530.17
2018-09-14T20:17:06.823Z,98532.11
2018-09-14T20:19:36.549Z,98529.77
2018-09-14T20:22:06.541Z,98528.28
2018-09-14T20:24:36.115Z,98529.91
2018-09-14T20:27:05.671Z,98536.67
2018-09-14T20:29:35.246Z,98535.15
2018-09-14T20:32:05.033Z,98541.60
2018-09-14T20:34:34.579Z,98536.58
2018-09-14T20:37:04.230Z,98532.75
2018-09-14T20:39:33.780Z,98526.28
2018-09-14T20:42:03.460Z,98526.08
2018-09-14T20:44:33.011Z,98528.53
2018-09-14T20:47:02.622Z,98533.15
2018-09-14T20:49:32.248Z,98526.83
2018-09-14T20:52:01.851Z,98529.92
2018-09-14T20:54:31.431Z,98527.35
2018-09-14T20:57:01.015Z,98527.09
2018-09-14T20:59:30.591Z,98525.75
2018-09-14T21:02:00.163Z,98518.61
2018-09-14T21:04:29.792Z,98519.72
2018-09-14T21:06:59.339Z,98529.63
2018-09-14T21:09:28.916Z,98528.45
2018-09-14T21:11:58.546Z,98523.46
2018-09-14T21:14:28.119Z,98522.28
2018-09-14T21:16:57.647Z,98519.79
2018-09-14T21:19:30.077Z,98530.02
2018-09-14T21:21:59.847Z,98524.38
2018-09-14T21:24:29.394Z,98529.64
2018-09-14T21:26:58.935Z,98529.78
2018-09-14T21:29:28.506Z,98528.05
2018-09-14T21:31:58.053Z,98530.81
2018-09-14T21:34:27.595Z,98537.65
2018-09-14T21:36:57.119Z,98531.33
2018-09-14T21:39:26.732Z,98536.41
2018-09-14T21:41:56.287Z,98535.84
2018-09-14T21:44:25.890Z,98536.98
2018-09-14T21:46:55.443Z,98537.06
2018-09-14T21:49:25.014Z,98536.39
2018-09-14T21:51:54.591Z,98536.53
2018-09-14T21:54:24.164Z,98536.53
2018-09-14T21:56:53.705Z,98541.11
2018-09-14T21:59:23.321Z,98541.36
2018-09-14T22:01:52.887Z,98550.76
2018-09-14T22:04:22.500Z,98552.41
2018-09-14T22:06:52.264Z,98554.72
2018-09-14T22:09:21.843Z,98548.11
2018-09-14T22:11:51.401Z,98540.65
2018-09-14T22:14:20.975Z,98545.12
2018-09-14T22:16:50.543Z,98548.05
2018-09-14T22:19:20.073Z,98543.40
2018-09-14T22:21:49.630Z,98551.41
2018-09-14T22:24:19.368Z,98558.72
2018-09-14T22:26:48.912Z,98563.01
2018-09-14T22:29:18.423Z,98563.37
2018-09-14T22:31:47.984Z,98564.19
2018-09-14T22:34:17.568Z,98561.41
2018-09-14T22:36:47.099Z,98565.87
2018-09-14T22:39:16.648Z,98564.05
2018-09-14T22:41:46.187Z,98568.02
2018-09-14T22:44:15.733Z,98578.11
2018-09-14T22:46:45.303Z,98583.19
2018-09-14T22:49:14.849Z,98588.26
2018-09-14T22:51:44.473Z,98592.58
2018-09-14T22:54:14.036Z,98594.26
2018-09-14T22:56:43.592Z,98586.66
2018-09-14T22:59:13.175Z,98583.69
2018-09-14T23:01:42.745Z,98585.62
2018-09-14T23:04:12.326Z,98589.25
2018-09-14T23:06:41.876Z,98589.54
2018-09-14T23:09:11.474Z,98582.22
2018-09-14T23:11:41.196Z,98586.19
2018-09-14T23:14:10.733Z,98586.61
2018-09-14T23:16:40.290Z,98597.67
2018-09-14T23:19:09.834Z,98596.71
2018-09-14T23:21:39.727Z,98601.28
2018-09-14T23:24:09.319Z,98601.28
2018-09-14T23:26:38.880Z,98597.31
2018-09-14T23:29:08.425Z,98595.39
2018-09-14T23:31:37.962Z,98598.36
2018-09-14T23:34:07.899Z,98594.75
2018-09-14T23:36:37.450Z,98594.39
2018-09-14T23:39:10.122Z,98594.39
2018-09-14T23:41:39.926Z,98591.75
2018-09-14T23:44:09.502Z,98591.42
2018-09-14T23:46:39.019Z,98600.31
2018-09-14T23:49:08.538Z,98599.06
2018-09-14T23:51:38.075Z,98594.70
2018-09-14T23:54:07.636Z,98589.55
2018-09-14T23:56:37.494Z,98584.27
2018-09-14T23:59:07.171Z,98582.55
